Time;durP1;ratioP1;P1;durP2;ratioP2;P2;SDS_P1;SDS_P2;PMS_P1;PMS_P2;Temp;Humidity;BMP_temperature;BMP_pressure;BME280_temperature;BME280_humidity;BME280_pressure;Samples;Min_cycle;Max_cycle;Signal;HPM_P1;HPM_P2
2022/10/12 00:09:07;;;;;;;5.10;2.10;;;16.00;99.90;;;;;;7574378;76;26739;-56
2022/10/12 00:19:12;;;;;;;4.13;1.87;;;15.90;99.90;;;;;;7567344;76;26274;-55
2022/10/12 00:29:14;;;;;;;8.10;1.80;;;15.90;99.90;;;;;;7606852;76;26268;-51
2022/10/12 00:39:17;;;;;;;3.23;1.63;;;15.90;99.90;;;;;;7614601;76;26272;-52
2022/10/12 00:49:24;;;;;;;4.70;1.80;;;15.80;99.90;;;;;;7571081;76;26842;-52
2022/10/12 00:59:30;;;;;;;4.70;1.53;;;15.80;99.90;;;;;;7582946;76;26345;-54
2022/10/12 01:09:33;;;;;;;3.73;1.43;;;15.80;99.90;;;;;;7621526;76;26802;-54
2022/10/12 01:20:02;;;;;;;7.37;1.90;;;15.70;99.90;;;;;;7626007;76;26347;-55
2022/10/12 01:30:22;;;;;;;4.87;2.07;;;15.70;99.90;;;;;;7573201;76;26314;-55
2022/10/12 01:40:30;;;;;;;3.07;1.57;;;15.70;99.90;;;;;;7608700;76;26294;-49
2022/10/12 01:50:38;;;;;;;3.10;1.80;;;15.60;99.90;;;;;;7593949;76;26782;-52
2022/10/12 02:00:44;;;;;;;1.73;1.07;;;15.60;99.90;;;;;;7575248;76;26294;-51
2022/10/12 02:11:10;;;;;;;4.03;2.00;;;15.60;99.90;;;;;;7592160;76;26787;-52
2022/10/12 02:21:15;;;;;;;5.90;1.73;;;15.50;99.90;;;;;;7589188;76;26370;-52
2022/10/12 02:31:23;;;;;;;2.37;1.57;;;15.50;99.90;;;;;;7585118;76;26333;-52
2022/10/12 02:41:29;;;;;;;4.67;1.83;;;15.50;99.90;;;;;;7623643;76;26257;-55
2022/10/12 02:51:33;;;;;;;3.20;1.40;;;15.50;99.90;;;;;;7570426;76;26365;-53
2022/10/12 03:01:35;;;;;;;4.87;1.97;;;15.40;99.90;;;;;;7588999;76;26256;-55
2022/10/12 03:11:42;;;;;;;3.50;1.63;;;15.40;99.90;;;;;;7615350;76;26773;-53
2022/10/12 03:21:42;;;;;;;4.73;1.53;;;15.30;99.90;;;;;;7585718;76;26836;-52
2022/10/12 03:31:45;;;;;;;2.63;1.30;;;15.30;99.90;;;;;;7582629;76;26245;-53
2022/10/12 03:41:47;;;;;;;2.50;1.37;;;15.30;99.90;;;;;;7609596;76;26251;-54
2022/10/12 03:51:50;;;;;;;4.57;1.70;;;15.20;99.90;;;;;;7588844;76;26290;-52
2022/10/12 04:01:52;;;;;;;2.10;1.40;;;15.20;99.90;;;;;;7594402;77;26906;-53
2022/10/12 04:11:55;;;;;;;6.23;1.80;;;15.20;99.90;;;;;;7639238;76;26394;-51
2022/10/12 04:21:57;;;;;;;5.37;1.77;;;15.30;99.90;;;;;;7634852;76;26747;-52
2022/10/12 04:32:00;;;;;;;2.67;1.57;;;15.20;99.90;;;;;;7647925;76;26233;-51
2022/10/12 04:42:02;;;;;;;3.13;1.70;;;15.10;99.90;;;;;;7657300;76;26280;-55
2022/10/12 04:52:05;;;;;;;2.70;1.77;;;15.10;99.90;;;;;;7653571;76;26268;-52
2022/10/12 05:02:07;;;;;;;2.70;1.60;;;15.10;99.90;;;;;;7605678;77;26979;-51
2022/10/12 05:12:10;;;;;;;4.50;1.80;;;15.00;99.90;;;;;;7627849;76;26341;-53
2022/10/12 05:22:12;;;;;;;3.13;1.60;;;15.00;99.90;;;;;;7641312;76;26339;-52
2022/10/12 05:32:16;;;;;;;3.97;2.00;;;14.90;99.90;;;;;;7658781;76;26805;-52
2022/10/12 05:42:18;;;;;;;5.23;2.23;;;14.90;99.90;;;;;;7672559;76;26582;-52
2022/10/12 05:52:21;;;;;;;4.97;3.00;;;14.90;99.90;;;;;;7685632;76;26262;-53
2022/10/12 06:02:23;;;;;;;3.87;2.60;;;14.90;99.90;;;;;;7692633;76;26317;-51
2022/10/12 06:12:26;;;;;;;7.83;3.60;;;14.80;99.90;;;;;;7669091;76;26251;-55
2022/10/12 06:22:29;;;;;;;3.60;1.93;;;14.90;99.90;;;;;;7600208;76;26291;-55
2022/10/12 06:32:32;;;;;;;4.93;2.17;;;14.80;99.90;;;;;;7592705;76;26371;-54
2022/10/12 06:42:34;;;;;;;5.10;2.50;;;14.90;99.90;;;;;;7676872;76;26257;-54
2022/10/12 06:52:37;;;;;;;5.30;2.53;;;14.90;99.90;;;;;;7664983;76;26814;-51
2022/10/12 07:02:40;;;;;;;4.23;1.97;;;14.90;99.90;;;;;;7615904;76;26298;-55
2022/10/12 07:12:42;;;;;;;4.17;2.10;;;14.90;99.90;;;;;;7638896;76;26280;-54
2022/10/12 07:22:45;;;;;;;4.03;2.20;;;14.90;99.90;;;;;;7665135;76;26245;-50
2022/10/12 07:32:48;;;;;;;7.53;3.90;;;14.90;99.90;;;;;;7665020;76;27068;-53
2022/10/12 07:42:50;;;;;;;4.20;2.63;;;15.00;99.90;;;;;;7645068;76;26273;-53
2022/10/12 07:52:53;;;;;;;5.30;2.20;;;15.00;99.90;;;;;;7617994;76;26687;-53
2022/10/12 08:02:55;;;;;;;3.60;2.03;;;15.10;99.90;;;;;;7629807;76;26277;-52
2022/10/12 08:12:58;;;;;;;3.80;2.00;;;15.30;99.90;;;;;;7646296;76;26268;-51
2022/10/12 08:23:00;;;;;;;7.67;2.73;;;15.50;99.90;;;;;;7670381;76;26264;-52
2022/10/12 08:33:03;;;;;;;7.00;2.17;;;15.80;99.90;;;;;;7607662;76;27118;-52
2022/10/12 08:43:14;;;;;;;2.27;1.60;;;16.00;99.90;;;;;;7602608;76;26271;-51
2022/10/12 08:53:24;;;;;;;7.47;2.27;;;16.10;99.90;;;;;;7618424;76;26385;-52
2022/10/12 09:03:50;;;;;;;4.53;2.13;;;16.30;99.90;;;;;;7607496;76;26251;-50
2022/10/12 09:13:59;;;;;;;3.53;1.80;;;16.40;99.90;;;;;;7613199;76;26276;-52
2022/10/12 09:24:03;;;;;;;6.00;2.50;;;16.60;99.90;;;;;;7653319;76;26351;-51
2022/10/12 09:34:07;;;;;;;5.67;2.47;;;16.70;99.90;;;;;;7689199;76;26272;-51
2022/10/12 09:44:13;;;;;;;4.13;2.10;;;16.80;99.90;;;;;;7639276;76;26275;-52
2022/10/12 09:54:18;;;;;;;3.87;1.90;;;17.00;99.90;;;;;;7572857;76;26365;-53
2022/10/12 10:04:25;;;;;;;3.17;1.83;;;17.10;99.90;;;;;;7582238;76;26294;-53
2022/10/12 10:14:29;;;;;;;4.37;2.10;;;17.20;99.90;;;;;;7581826;76;26294;-54
2022/10/12 10:24:33;;;;;;;7.73;2.90;;;17.20;99.90;;;;;;7645755;76;26652;-51
2022/10/12 10:34:36;;;;;;;5.33;2.30;;;17.20;99.90;;;;;;7609138;76;26712;-54
2022/10/12 10:44:39;;;;;;;7.57;2.67;;;17.30;99.90;;;;;;7649555;76;26262;-50
2022/10/12 10:54:41;;;;;;;4.73;2.20;;;17.30;99.90;;;;;;7646576;76;26331;-52
2022/10/12 11:04:47;;;;;;;4.23;2.77;;;17.40;99.90;;;;;;7644030;76;26284;-54
2022/10/12 11:14:53;;;;;;;6.10;2.70;;;17.40;99.90;;;;;;7662948;77;26295;-52
2022/10/12 11:25:21;;;;;;;8.90;2.70;;;17.50;99.90;;;;;;7630032;76;26297;-50
2022/10/12 11:35:27;;;;;;;6.90;2.70;;;17.50;99.90;;;;;;7593133;76;26278;-51
2022/10/12 11:45:32;;;;;;;4.50;2.63;;;17.50;99.90;;;;;;7678467;76;26335;-55
2022/10/12 11:56:00;;;;;;;7.40;3.07;;;17.50;99.90;;;;;;7644752;76;26833;-51
2022/10/12 12:06:31;;;;;;;6.03;2.40;;;17.60;99.90;;;;;;7596793;76;27197;-52
2022/10/12 12:16:37;;;;;;;6.80;3.00;;;17.60;99.90;;;;;;7620505;76;26351;-49
2022/10/12 12:26:43;;;;;;;6.63;2.50;;;17.60;99.90;;;;;;7598722;76;26283;-55
2022/10/12 12:36:50;;;;;;;9.27;3.23;;;17.60;99.90;;;;;;7659652;76;26253;-55
2022/10/12 12:46:58;;;;;;;8.67;3.00;;;17.70;99.90;;;;;;7591328;76;26879;-55
2022/10/12 12:57:27;;;;;;;10.70;3.90;;;17.70;99.90;;;;;;7607192;76;26252;-52
2022/10/12 13:08:05;;;;;;;4.90;3.07;;;17.80;99.90;;;;;;7549303;76;26357;-50
2022/10/12 13:18:29;;;;;;;8.20;3.83;;;17.70;99.90;;;;;;7667947;76;26390;-52
2022/10/12 13:28:35;;;;;;;8.03;3.30;;;17.70;99.90;;;;;;7596030;76;26407;-51
2022/10/12 13:38:39;;;;;;;10.57;3.40;;;17.70;99.90;;;;;;7664187;76;26348;-50
2022/10/12 13:48:44;;;;;;;8.17;3.40;;;17.70;99.90;;;;;;7669793;76;26394;-50
2022/10/12 13:58:47;;;;;;;10.47;3.93;;;17.70;99.90;;;;;;7686956;76;26283;-50
2022/10/12 14:08:50;;;;;;;7.93;3.93;;;17.70;99.90;;;;;;7685216;76;26260;-51
2022/10/12 14:18:53;;;;;;;9.27;4.07;;;17.70;99.90;;;;;;7620653;76;26256;-51
2022/10/12 14:28:57;;;;;;;11.33;4.47;;;17.70;99.90;;;;;;7635958;76;26878;-51
2022/10/12 14:39:02;;;;;;;7.37;3.93;;;17.70;99.90;;;;;;7624663;76;26277;-51
2022/10/12 14:49:05;;;;;;;7.57;3.57;;;17.70;99.90;;;;;;7672621;76;26248;-51
2022/10/12 14:59:07;;;;;;;12.93;3.67;;;17.70;99.90;;;;;;7685774;76;26249;-51
2022/10/12 15:09:10;;;;;;;10.03;4.00;;;17.70;99.90;;;;;;7672730;76;26326;-53
2022/10/12 15:19:13;;;;;;;10.33;4.17;;;17.60;99.90;;;;;;7647755;76;26333;-51
2022/10/12 15:29:15;;;;;;;8.50;3.70;;;17.60;99.90;;;;;;7602272;76;26252;-53
2022/10/12 15:39:17;;;;;;;8.33;3.97;;;17.60;99.90;;;;;;7640523;76;26867;-50
2022/10/12 15:49:25;;;;;;;10.77;3.93;;;17.60;99.90;;;;;;7645665;76;26240;-52
2022/10/12 15:59:25;;;;;;;16.70;6.07;;;17.60;99.90;;;;;;7609496;76;26345;-56
2022/10/12 16:09:28;;;;;;;20.97;7.73;;;17.40;99.90;;;;;;7562526;76;26339;-59
2022/10/12 16:19:31;;;;;;;18.80;6.00;;;17.50;99.90;;;;;;7578534;76;26727;-59
2022/10/12 16:29:33;;;;;;;14.30;6.27;;;17.40;99.90;;;;;;7568668;76;26280;-58
2022/10/12 16:39:36;;;;;;;13.70;5.07;;;17.40;99.90;;;;;;7592750;76;26797;-55
2022/10/12 16:49:38;;;;;;;13.73;5.80;;;17.30;99.90;;;;;;7608848;76;26664;-53
2022/10/12 16:59:41;;;;;;;11.00;5.57;;;17.40;99.90;;;;;;7590588;76;26761;-57
2022/10/12 17:09:44;;;;;;;15.10;5.67;;;17.20;99.90;;;;;;7615258;77;26269;-55
2022/10/12 17:19:47;;;;;;;12.40;4.53;;;17.30;99.90;;;;;;7610122;77;26323;-55
2022/10/12 17:29:49;;;;;;;9.13;4.20;;;17.10;99.90;;;;;;7635113;76;26327;-56
2022/10/12 17:39:52;;;;;;;15.00;5.70;;;17.10;99.90;;;;;;7625066;76;26278;-56
2022/10/12 17:49:54;;;;;;;74.17;27.63;;;17.10;99.90;;;;;;7589906;76;26249;-58
2022/10/12 17:59:57;;;;;;;91.90;34.53;;;17.10;99.90;;;;;;7619565;76;26319;-55
2022/10/12 18:09:59;;;;;;;59.33;23.73;;;17.10;99.90;;;;;;7675133;76;26715;-55
2022/10/12 18:20:02;;;;;;;69.13;26.67;;;17.00;99.90;;;;;;7614955;76;26255;-56
2022/10/12 18:30:05;;;;;;;60.03;24.90;;;17.00;99.90;;;;;;7656407;76;26717;-57
2022/10/12 18:40:09;;;;;;;71.80;31.97;;;16.90;99.90;;;;;;7600513;76;26320;-51
2022/10/12 18:50:11;;;;;;;62.23;27.80;;;16.90;99.90;;;;;;7583941;76;26355;-50
2022/10/12 19:00:14;;;;;;;55.10;25.57;;;16.90;99.90;;;;;;7646083;76;26346;-50
2022/10/12 19:10:16;;;;;;;44.93;17.30;;;16.90;99.90;;;;;;7651403;76;26545;-55
2022/10/12 19:20:19;;;;;;;30.67;14.97;;;16.40;99.90;;;;;;7675227;76;26299;-55
2022/10/12 19:30:22;;;;;;;28.63;15.20;;;16.10;99.90;;;;;;7683167;76;26750;-58
2022/10/12 19:40:24;;;;;;;34.67;14.30;;;16.40;99.90;;;;;;7647072;76;26302;-52
2022/10/12 19:50:27;;;;;;;29.93;15.17;;;16.40;99.90;;;;;;7671492;76;26812;-53
2022/10/12 20:00:31;;;;;;;26.70;13.00;;;16.50;99.90;;;;;;7683950;76;26284;-51
2022/10/12 20:10:35;;;;;;;36.00;13.57;;;16.30;99.90;;;;;;7691366;76;26260;-52
2022/10/12 20:20:42;;;;;;;42.50;14.20;;;16.30;99.90;;;;;;7654652;76;26340;-55
2022/10/12 20:30:45;;;;;;;68.33;21.03;;;16.40;99.90;;;;;;7591509;76;26769;-54
2022/10/12 20:40:48;;;;;;;46.23;14.27;;;16.40;99.90;;;;;;7669752;76;26777;-55
2022/10/12 20:50:50;;;;;;;47.27;15.70;;;16.20;99.90;;;;;;7695037;76;26306;-56
2022/10/12 21:01:04;;;;;;;50.53;17.17;;;16.40;99.90;;;;;;7698875;76;26236;-53
2022/10/12 21:11:08;;;;;;;35.10;15.00;;;16.40;99.90;;;;;;7695935;76;26356;-53
2022/10/12 21:21:13;;;;;;;37.20;15.97;;;16.40;99.90;;;;;;7692469;76;26240;-55
2022/10/12 21:31:16;;;;;;;26.60;11.60;;;16.40;99.90;;;;;;7691377;76;26484;-52
2022/10/12 21:41:21;;;;;;;28.73;13.63;;;16.40;99.90;;;;;;7692854;76;26324;-54
2022/10/12 21:51:24;;;;;;;27.40;12.40;;;16.30;99.90;;;;;;7703645;76;26334;-56
2022/10/12 22:01:35;;;;;;;25.83;11.20;;;16.20;99.90;;;;;;7688775;76;26249;-50
2022/10/12 22:11:38;;;;;;;27.73;10.83;;;16.10;99.90;;;;;;7697527;76;26817;-53
2022/10/12 22:21:41;;;;;;;18.43;9.93;;;16.20;99.90;;;;;;7701052;76;26710;-55
2022/10/12 22:31:45;;;;;;;22.17;9.73;;;16.20;99.90;;;;;;7693430;76;26330;-50
2022/10/12 22:41:47;;;;;;;17.23;9.03;;;16.20;99.90;;;;;;7700658;77;26245;-54
2022/10/12 22:51:50;;;;;;;18.20;9.90;;;16.00;99.90;;;;;;7695140;76;26253;-53
2022/10/12 23:01:53;;;;;;;18.57;9.43;;;16.00;99.90;;;;;;7692894;76;26280;-51
2022/10/12 23:11:55;;;;;;;16.50;8.30;;;16.00;99.90;;;;;;7636162;76;26761;-52
2022/10/12 23:21:57;;;;;;;19.23;9.37;;;15.90;99.90;;;;;;7583484;76;26260;-57
2022/10/12 23:32:00;;;;;;;14.53;7.93;;;15.70;99.90;;;;;;7598432;76;26286;-53
2022/10/12 23:42:03;;;;;;;17.27;7.43;;;15.90;99.90;;;;;;7629409;76;26825;-55
2022/10/12 23:52:05;;;;;;;14.77;8.20;;;15.80;99.90;;;;;;7633659;76;26404;-55
